sensor_id;sensor_type;location;lat;lon;timestamp;P1;durP1;ratioP1;P2;durP2;ratioP2
46653;SDS011;38960;51.074;17.004;2023-07-13T00:00:21;21.88;;;20.02;;
46653;SDS011;38960;51.074;17.004;2023-07-13T00:02:47;21.13;;;19.52;;
46653;SDS011;38960;51.074;17.004;2023-07-13T00:05:12;23.25;;;21.27;;
46653;SDS011;38960;51.074;17.004;2023-07-13T00:07:38;22.52;;;20.65;;
46653;SDS011;38960;51.074;17.004;2023-07-13T00:10:04;21.88;;;20.02;;
46653;SDS011;38960;51.074;17.004;2023-07-13T00:12:34;21.75;;;19.88;;
46653;SDS011;38960;51.074;17.004;2023-07-13T00:15:03;21.98;;;20.20;;
46653;SDS011;38960;51.074;17.004;2023-07-13T00:17:34;23.15;;;21.05;;
46653;SDS011;38960;51.074;17.004;2023-07-13T00:20:00;21.98;;;20.48;;
46653;SDS011;38960;51.074;17.004;2023-07-13T00:22:26;22.38;;;20.58;;
46653;SDS011;38960;51.074;17.004;2023-07-13T00:24:52;22.42;;;20.70;;
46653;SDS011;38960;51.074;17.004;2023-07-13T00:27:18;22.75;;;20.95;;
46653;SDS011;38960;51.074;17.004;2023-07-13T00:29:45;23.80;;;21.73;;
46653;SDS011;38960;51.074;17.004;2023-07-13T00:32:11;22.35;;;20.58;;
46653;SDS011;38960;51.074;17.004;2023-07-13T00:34:37;21.83;;;19.73;;
46653;SDS011;38960;51.074;17.004;2023-07-13T00:37:03;22.42;;;20.50;;
46653;SDS011;38960;51.074;17.004;2023-07-13T00:39:31;21.88;;;20.33;;
46653;SDS011;38960;51.074;17.004;2023-07-13T00:41:58;22.60;;;20.80;;
46653;SDS011;38960;51.074;17.004;2023-07-13T00:44:24;22.42;;;20.52;;
46653;SDS011;38960;51.074;17.004;2023-07-13T00:46:49;21.92;;;20.23;;
46653;SDS011;38960;51.074;17.004;2023-07-13T00:49:16;21.65;;;19.98;;
46653;SDS011;38960;51.074;17.004;2023-07-13T00:51:45;22.38;;;20.60;;
46653;SDS011;38960;51.074;17.004;2023-07-13T00:54:17;23.13;;;21.13;;
46653;SDS011;38960;51.074;17.004;2023-07-13T00:56:45;22.77;;;20.95;;
46653;SDS011;38960;51.074;17.004;2023-07-13T00:59:13;21.98;;;20.00;;
46653;SDS011;38960;51.074;17.004;2023-07-13T01:01:40;22.10;;;20.20;;
46653;SDS011;38960;51.074;17.004;2023-07-13T01:04:06;22.95;;;20.92;;
46653;SDS011;38960;51.074;17.004;2023-07-13T01:06:37;23.35;;;21.27;;
46653;SDS011;38960;51.074;17.004;2023-07-13T01:09:03;22.25;;;20.45;;
46653;SDS011;38960;51.074;17.004;2023-07-13T01:11:30;22.23;;;20.02;;
46653;SDS011;38960;51.074;17.004;2023-07-13T01:13:55;22.67;;;20.35;;
46653;SDS011;38960;51.074;17.004;2023-07-13T01:16:25;22.75;;;20.52;;
46653;SDS011;38960;51.074;17.004;2023-07-13T01:18:53;23.02;;;20.98;;
46653;SDS011;38960;51.074;17.004;2023-07-13T01:21:19;22.08;;;20.02;;
46653;SDS011;38960;51.074;17.004;2023-07-13T01:23:45;22.13;;;20.33;;
46653;SDS011;38960;51.074;17.004;2023-07-13T01:26:11;22.92;;;20.92;;
46653;SDS011;38960;51.074;17.004;2023-07-13T01:28:37;23.27;;;21.55;;
46653;SDS011;38960;51.074;17.004;2023-07-13T01:31:03;22.55;;;20.65;;
46653;SDS011;38960;51.074;17.004;2023-07-13T01:33:28;22.42;;;20.10;;
46653;SDS011;38960;51.074;17.004;2023-07-13T01:35:55;22.50;;;20.73;;
46653;SDS011;38960;51.074;17.004;2023-07-13T01:38:24;23.08;;;21.00;;
46653;SDS011;38960;51.074;17.004;2023-07-13T01:40:53;22.48;;;20.63;;
46653;SDS011;38960;51.074;17.004;2023-07-13T01:43:19;23.02;;;21.10;;
46653;SDS011;38960;51.074;17.004;2023-07-13T01:45:45;22.77;;;20.98;;
46653;SDS011;38960;51.074;17.004;2023-07-13T01:48:11;23.88;;;22.05;;
46653;SDS011;38960;51.074;17.004;2023-07-13T01:50:37;23.08;;;21.38;;
46653;SDS011;38960;51.074;17.004;2023-07-13T01:53:03;24.17;;;21.95;;
46653;SDS011;38960;51.074;17.004;2023-07-13T01:55:29;26.13;;;21.10;;
46653;SDS011;38960;51.074;17.004;2023-07-13T01:57:55;22.77;;;20.85;;
46653;SDS011;38960;51.074;17.004;2023-07-13T02:00:21;24.15;;;21.58;;
46653;SDS011;38960;51.074;17.004;2023-07-13T02:02:46;23.60;;;21.40;;
46653;SDS011;38960;51.074;17.004;2023-07-13T02:05:13;24.67;;;21.88;;
46653;SDS011;38960;51.074;17.004;2023-07-13T02:07:40;26.55;;;20.05;;
46653;SDS011;38960;51.074;17.004;2023-07-13T02:10:06;23.67;;;21.75;;
46653;SDS011;38960;51.074;17.004;2023-07-13T02:12:33;24.08;;;21.95;;
46653;SDS011;38960;51.074;17.004;2023-07-13T02:14:59;23.35;;;21.40;;
46653;SDS011;38960;51.074;17.004;2023-07-13T02:17:25;22.10;;;20.48;;
46653;SDS011;38960;51.074;17.004;2023-07-13T02:19:52;23.85;;;21.55;;
46653;SDS011;38960;51.074;17.004;2023-07-13T02:22:17;23.17;;;21.17;;
46653;SDS011;38960;51.074;17.004;2023-07-13T02:24:43;24.38;;;22.17;;
46653;SDS011;38960;51.074;17.004;2023-07-13T02:27:08;35.00;;;24.35;;
46653;SDS011;38960;51.074;17.004;2023-07-13T02:29:34;22.95;;;20.77;;
46653;SDS011;38960;51.074;17.004;2023-07-13T02:32:00;23.45;;;21.17;;
46653;SDS011;38960;51.074;17.004;2023-07-13T02:34:25;24.08;;;21.33;;
46653;SDS011;38960;51.074;17.004;2023-07-13T02:36:51;23.00;;;21.15;;
46653;SDS011;38960;51.074;17.004;2023-07-13T02:39:16;22.77;;;20.83;;
46653;SDS011;38960;51.074;17.004;2023-07-13T02:41:42;22.27;;;19.98;;
46653;SDS011;38960;51.074;17.004;2023-07-13T02:44:07;23.15;;;20.85;;
46653;SDS011;38960;51.074;17.004;2023-07-13T02:46:34;24.25;;;21.67;;
46653;SDS011;38960;51.074;17.004;2023-07-13T02:49:01;23.67;;;21.63;;
46653;SDS011;38960;51.074;17.004;2023-07-13T02:51:27;21.63;;;19.83;;
46653;SDS011;38960;51.074;17.004;2023-07-13T02:53:52;24.50;;;20.95;;
46653;SDS011;38960;51.074;17.004;2023-07-13T02:56:25;23.48;;;21.38;;
46653;SDS011;38960;51.074;17.004;2023-07-13T02:58:52;23.35;;;21.00;;
46653;SDS011;38960;51.074;17.004;2023-07-13T03:01:17;23.05;;;21.17;;
46653;SDS011;38960;51.074;17.004;2023-07-13T03:03:47;23.40;;;21.45;;
46653;SDS011;38960;51.074;17.004;2023-07-13T03:06:14;23.60;;;21.38;;
46653;SDS011;38960;51.074;17.004;2023-07-13T03:08:48;23.83;;;21.60;;
46653;SDS011;38960;51.074;17.004;2023-07-13T03:11:18;23.17;;;21.30;;
46653;SDS011;38960;51.074;17.004;2023-07-13T03:13:48;24.00;;;21.65;;
46653;SDS011;38960;51.074;17.004;2023-07-13T03:16:14;23.65;;;21.45;;
46653;SDS011;38960;51.074;17.004;2023-07-13T03:18:42;23.25;;;21.23;;
46653;SDS011;38960;51.074;17.004;2023-07-13T03:21:10;23.25;;;21.15;;
46653;SDS011;38960;51.074;17.004;2023-07-13T03:23:36;23.08;;;21.17;;
46653;SDS011;38960;51.074;17.004;2023-07-13T03:26:05;22.42;;;20.40;;
46653;SDS011;38960;51.074;17.004;2023-07-13T03:28:33;22.80;;;20.70;;
46653;SDS011;38960;51.074;17.004;2023-07-13T03:31:06;22.77;;;20.48;;
46653;SDS011;38960;51.074;17.004;2023-07-13T03:33:42;21.42;;;19.83;;
46653;SDS011;38960;51.074;17.004;2023-07-13T03:36:15;22.85;;;20.48;;
46653;SDS011;38960;51.074;17.004;2023-07-13T03:38:49;22.77;;;20.70;;
46653;SDS011;38960;51.074;17.004;2023-07-13T03:41:21;22.13;;;20.25;;
46653;SDS011;38960;51.074;17.004;2023-07-13T03:43:48;22.77;;;20.88;;
46653;SDS011;38960;51.074;17.004;2023-07-13T03:46:16;21.02;;;19.10;;
46653;SDS011;38960;51.074;17.004;2023-07-13T03:48:44;21.95;;;20.00;;
46653;SDS011;38960;51.074;17.004;2023-07-13T03:51:11;24.20;;;19.20;;
46653;SDS011;38960;51.074;17.004;2023-07-13T03:53:42;27.50;;;20.23;;
46653;SDS011;38960;51.074;17.004;2023-07-13T03:56:11;25.65;;;20.75;;
46653;SDS011;38960;51.074;17.004;2023-07-13T03:58:38;22.08;;;19.75;;
46653;SDS011;38960;51.074;17.004;2023-07-13T04:01:13;22.20;;;20.08;;
46653;SDS011;38960;51.074;17.004;2023-07-13T04:03:41;23.67;;;20.20;;
46653;SDS011;38960;51.074;17.004;2023-07-13T04:06:07;20.55;;;19.13;;
46653;SDS011;38960;51.074;17.004;2023-07-13T04:08:40;22.52;;;20.75;;
46653;SDS011;38960;51.074;17.004;2023-07-13T04:11:07;23.70;;;21.25;;
46653;SDS011;38960;51.074;17.004;2023-07-13T04:13:32;23.05;;;21.17;;
46653;SDS011;38960;51.074;17.004;2023-07-13T04:15:58;20.73;;;19.13;;
46653;SDS011;38960;51.074;17.004;2023-07-13T04:18:24;20.90;;;19.30;;
46653;SDS011;38960;51.074;17.004;2023-07-13T04:20:49;22.15;;;20.55;;
46653;SDS011;38960;51.074;17.004;2023-07-13T04:23:18;22.35;;;20.38;;
46653;SDS011;38960;51.074;17.004;2023-07-13T04:25:44;21.73;;;19.80;;
46653;SDS011;38960;51.074;17.004;2023-07-13T04:28:11;26.00;;;20.25;;
46653;SDS011;38960;51.074;17.004;2023-07-13T04:30:37;22.40;;;20.08;;
46653;SDS011;38960;51.074;17.004;2023-07-13T04:33:02;21.77;;;19.45;;
46653;SDS011;38960;51.074;17.004;2023-07-13T04:35:29;21.42;;;19.50;;
46653;SDS011;38960;51.074;17.004;2023-07-13T04:37:56;20.77;;;18.95;;
46653;SDS011;38960;51.074;17.004;2023-07-13T04:40:21;21.45;;;19.38;;
46653;SDS011;38960;51.074;17.004;2023-07-13T04:42:47;21.13;;;19.40;;
46653;SDS011;38960;51.074;17.004;2023-07-13T04:45:13;21.13;;;19.63;;
46653;SDS011;38960;51.074;17.004;2023-07-13T04:47:39;21.90;;;19.85;;
46653;SDS011;38960;51.074;17.004;2023-07-13T04:50:05;22.95;;;20.52;;
46653;SDS011;38960;51.074;17.004;2023-07-13T04:52:32;22.60;;;20.25;;
46653;SDS011;38960;51.074;17.004;2023-07-13T04:54:58;20.55;;;18.95;;
46653;SDS011;38960;51.074;17.004;2023-07-13T04:57:25;20.13;;;18.52;;
46653;SDS011;38960;51.074;17.004;2023-07-13T04:59:51;20.45;;;18.67;;
46653;SDS011;38960;51.074;17.004;2023-07-13T05:02:17;20.92;;;19.33;;
46653;SDS011;38960;51.074;17.004;2023-07-13T05:04:45;20.02;;;18.63;;
46653;SDS011;38960;51.074;17.004;2023-07-13T05:07:11;20.17;;;18.40;;
46653;SDS011;38960;51.074;17.004;2023-07-13T05:09:37;19.17;;;17.70;;
46653;SDS011;38960;51.074;17.004;2023-07-13T05:12:02;20.17;;;18.40;;
46653;SDS011;38960;51.074;17.004;2023-07-13T05:14:28;21.27;;;19.27;;
46653;SDS011;38960;51.074;17.004;2023-07-13T05:16:54;20.67;;;18.90;;
46653;SDS011;38960;51.074;17.004;2023-07-13T05:19:19;20.25;;;18.40;;
46653;SDS011;38960;51.074;17.004;2023-07-13T05:21:45;19.63;;;17.88;;
46653;SDS011;38960;51.074;17.004;2023-07-13T05:24:11;19.38;;;17.58;;
46653;SDS011;38960;51.074;17.004;2023-07-13T05:26:37;19.88;;;17.95;;
46653;SDS011;38960;51.074;17.004;2023-07-13T05:29:02;19.27;;;17.83;;
46653;SDS011;38960;51.074;17.004;2023-07-13T05:31:27;20.17;;;18.50;;
46653;SDS011;38960;51.074;17.004;2023-07-13T05:33:53;19.25;;;17.75;;
46653;SDS011;38960;51.074;17.004;2023-07-13T05:36:18;19.15;;;17.75;;
46653;SDS011;38960;51.074;17.004;2023-07-13T05:38:44;19.10;;;17.50;;
46653;SDS011;38960;51.074;17.004;2023-07-13T05:41:09;19.20;;;17.80;;
46653;SDS011;38960;51.074;17.004;2023-07-13T05:43:35;18.70;;;17.40;;
46653;SDS011;38960;51.074;17.004;2023-07-13T05:46:00;18.67;;;17.30;;
46653;SDS011;38960;51.074;17.004;2023-07-13T05:48:26;18.83;;;17.58;;
46653;SDS011;38960;51.074;17.004;2023-07-13T05:50:51;21.05;;;19.23;;
46653;SDS011;38960;51.074;17.004;2023-07-13T05:53:17;19.50;;;18.23;;
46653;SDS011;38960;51.074;17.004;2023-07-13T05:55:46;19.55;;;17.88;;
46653;SDS011;38960;51.074;17.004;2023-07-13T05:58:16;19.08;;;17.73;;
46653;SDS011;38960;51.074;17.004;2023-07-13T06:00:42;19.90;;;18.45;;
46653;SDS011;38960;51.074;17.004;2023-07-13T06:03:08;19.55;;;18.05;;
46653;SDS011;38960;51.074;17.004;2023-07-13T06:05:34;19.60;;;17.98;;
46653;SDS011;38960;51.074;17.004;2023-07-13T06:08:01;20.45;;;18.95;;
46653;SDS011;38960;51.074;17.004;2023-07-13T06:10:26;20.25;;;18.75;;
46653;SDS011;38960;51.074;17.004;2023-07-13T06:12:52;19.63;;;18.30;;
46653;SDS011;38960;51.074;17.004;2023-07-13T06:15:17;20.02;;;18.70;;
46653;SDS011;38960;51.074;17.004;2023-07-13T06:17:43;20.00;;;18.65;;
46653;SDS011;38960;51.074;17.004;2023-07-13T06:20:09;21.17;;;19.33;;
46653;SDS011;38960;51.074;17.004;2023-07-13T06:22:34;20.83;;;19.30;;
46653;SDS011;38960;51.074;17.004;2023-07-13T06:25:00;21.67;;;20.08;;
46653;SDS011;38960;51.074;17.004;2023-07-13T06:27:26;21.25;;;19.65;;
46653;SDS011;38960;51.074;17.004;2023-07-13T06:29:51;20.70;;;19.23;;
46653;SDS011;38960;51.074;17.004;2023-07-13T06:32:17;21.35;;;19.70;;
46653;SDS011;38960;51.074;17.004;2023-07-13T06:34:42;21.10;;;19.50;;
46653;SDS011;38960;51.074;17.004;2023-07-13T06:37:08;20.85;;;19.40;;
46653;SDS011;38960;51.074;17.004;2023-07-13T06:39:34;19.45;;;18.13;;
46653;SDS011;38960;51.074;17.004;2023-07-13T06:42:00;20.45;;;19.15;;
46653;SDS011;38960;51.074;17.004;2023-07-13T06:44:25;20.33;;;18.88;;
46653;SDS011;38960;51.074;17.004;2023-07-13T06:46:51;19.95;;;18.45;;
46653;SDS011;38960;51.074;17.004;2023-07-13T06:49:16;20.65;;;18.98;;
46653;SDS011;38960;51.074;17.004;2023-07-13T06:51:42;21.23;;;19.73;;
46653;SDS011;38960;51.074;17.004;2023-07-13T06:54:07;21.05;;;19.60;;
46653;SDS011;38960;51.074;17.004;2023-07-13T06:56:33;22.10;;;20.30;;
46653;SDS011;38960;51.074;17.004;2023-07-13T06:58:58;21.60;;;19.50;;
46653;SDS011;38960;51.074;17.004;2023-07-13T07:01:24;20.85;;;19.35;;
46653;SDS011;38960;51.074;17.004;2023-07-13T07:03:49;21.70;;;20.15;;
46653;SDS011;38960;51.074;17.004;2023-07-13T07:08:44;21.98;;;20.20;;
46653;SDS011;38960;51.074;17.004;2023-07-13T07:11:15;21.75;;;19.98;;
46653;SDS011;38960;51.074;17.004;2023-07-13T07:13:43;21.50;;;19.92;;
46653;SDS011;38960;51.074;17.004;2023-07-13T07:16:08;21.70;;;20.23;;
46653;SDS011;38960;51.074;17.004;2023-07-13T07:18:34;21.10;;;19.60;;
46653;SDS011;38960;51.074;17.004;2023-07-13T07:21:00;21.67;;;19.83;;
46653;SDS011;38960;51.074;17.004;2023-07-13T07:23:26;22.25;;;20.50;;
46653;SDS011;38960;51.074;17.004;2023-07-13T07:25:51;21.90;;;20.20;;
46653;SDS011;38960;51.074;17.004;2023-07-13T07:28:17;21.13;;;19.38;;
46653;SDS011;38960;51.074;17.004;2023-07-13T07:30:46;22.05;;;20.05;;
46653;SDS011;38960;51.074;17.004;2023-07-13T07:33:12;23.38;;;20.88;;
46653;SDS011;38960;51.074;17.004;2023-07-13T07:35:37;21.95;;;19.75;;
46653;SDS011;38960;51.074;17.004;2023-07-13T07:38:03;21.48;;;19.98;;
46653;SDS011;38960;51.074;17.004;2023-07-13T07:40:29;21.20;;;19.77;;
46653;SDS011;38960;51.074;17.004;2023-07-13T07:42:54;22.38;;;20.45;;
46653;SDS011;38960;51.074;17.004;2023-07-13T07:45:20;21.67;;;20.13;;
46653;SDS011;38960;51.074;17.004;2023-07-13T07:47:46;23.17;;;21.25;;
46653;SDS011;38960;51.074;17.004;2023-07-13T07:50:12;22.73;;;21.13;;
46653;SDS011;38960;51.074;17.004;2023-07-13T07:52:37;23.15;;;21.35;;
46653;SDS011;38960;51.074;17.004;2023-07-13T07:55:03;21.80;;;20.08;;
46653;SDS011;38960;51.074;17.004;2023-07-13T07:57:30;22.75;;;21.15;;
46653;SDS011;38960;51.074;17.004;2023-07-13T07:59:56;22.38;;;20.70;;
46653;SDS011;38960;51.074;17.004;2023-07-13T08:02:21;21.30;;;19.77;;
46653;SDS011;38960;51.074;17.004;2023-07-13T08:04:47;23.30;;;21.58;;
46653;SDS011;38960;51.074;17.004;2023-07-13T08:07:12;22.70;;;21.10;;
46653;SDS011;38960;51.074;17.004;2023-07-13T08:09:38;22.98;;;21.15;;
46653;SDS011;38960;51.074;17.004;2023-07-13T08:12:04;23.75;;;21.85;;
46653;SDS011;38960;51.074;17.004;2023-07-13T08:14:29;22.80;;;21.20;;
46653;SDS011;38960;51.074;17.004;2023-07-13T08:16:55;22.23;;;20.58;;
46653;SDS011;38960;51.074;17.004;2023-07-13T08:19:20;23.50;;;21.75;;
46653;SDS011;38960;51.074;17.004;2023-07-13T08:21:46;22.75;;;21.23;;
46653;SDS011;38960;51.074;17.004;2023-07-13T08:24:13;23.02;;;21.52;;
46653;SDS011;38960;51.074;17.004;2023-07-13T08:26:39;23.15;;;21.55;;
46653;SDS011;38960;51.074;17.004;2023-07-13T08:29:04;22.55;;;20.83;;
46653;SDS011;38960;51.074;17.004;2023-07-13T08:31:30;22.92;;;21.00;;
46653;SDS011;38960;51.074;17.004;2023-07-13T08:33:56;22.15;;;20.55;;
46653;SDS011;38960;51.074;17.004;2023-07-13T08:36:21;23.17;;;21.00;;
46653;SDS011;38960;51.074;17.004;2023-07-13T08:38:47;23.33;;;21.17;;
46653;SDS011;38960;51.074;17.004;2023-07-13T08:41:16;22.48;;;20.52;;
46653;SDS011;38960;51.074;17.004;2023-07-13T08:43:44;21.73;;;20.15;;
46653;SDS011;38960;51.074;17.004;2023-07-13T08:46:13;21.70;;;20.30;;
46653;SDS011;38960;51.074;17.004;2023-07-13T08:48:52;21.20;;;19.87;;
46653;SDS011;38960;51.074;17.004;2023-07-13T08:53:54;21.58;;;19.95;;
46653;SDS011;38960;51.074;17.004;2023-07-13T08:56:24;22.88;;;21.38;;
46653;SDS011;38960;51.074;17.004;2023-07-13T08:58:54;20.88;;;19.65;;
46653;SDS011;38960;51.074;17.004;2023-07-13T09:01:30;21.88;;;20.17;;
46653;SDS011;38960;51.074;17.004;2023-07-13T09:04:03;22.33;;;20.92;;
46653;SDS011;38960;51.074;17.004;2023-07-13T09:06:39;21.70;;;20.30;;
46653;SDS011;38960;51.074;17.004;2023-07-13T09:09:22;22.33;;;20.63;;
46653;SDS011;38960;51.074;17.004;2023-07-13T09:12:07;21.35;;;19.90;;
46653;SDS011;38960;51.074;17.004;2023-07-13T09:14:55;23.15;;;21.33;;
46653;SDS011;38960;51.074;17.004;2023-07-13T09:17:26;23.10;;;21.10;;
46653;SDS011;38960;51.074;17.004;2023-07-13T09:19:57;21.13;;;19.40;;
46653;SDS011;38960;51.074;17.004;2023-07-13T09:22:25;21.30;;;19.90;;
46653;SDS011;38960;51.074;17.004;2023-07-13T09:24:55;21.15;;;19.75;;
46653;SDS011;38960;51.074;17.004;2023-07-13T09:27:41;21.02;;;19.63;;
46653;SDS011;38960;51.074;17.004;2023-07-13T09:32:41;20.58;;;18.95;;
46653;SDS011;38960;51.074;17.004;2023-07-13T09:35:15;22.10;;;20.13;;
46653;SDS011;38960;51.074;17.004;2023-07-13T09:37:43;22.00;;;20.20;;
46653;SDS011;38960;51.074;17.004;2023-07-13T09:40:30;19.73;;;17.95;;
46653;SDS011;38960;51.074;17.004;2023-07-13T09:43:02;21.67;;;20.15;;
46653;SDS011;38960;51.074;17.004;2023-07-13T09:45:34;23.30;;;21.02;;
46653;SDS011;38960;51.074;17.004;2023-07-13T09:48:05;22.40;;;20.58;;
46653;SDS011;38960;51.074;17.004;2023-07-13T09:50:34;22.88;;;21.13;;
46653;SDS011;38960;51.074;17.004;2023-07-13T09:53:00;22.27;;;20.65;;
46653;SDS011;38960;51.074;17.004;2023-07-13T09:55:34;20.80;;;19.40;;
46653;SDS011;38960;51.074;17.004;2023-07-13T10:00:36;22.05;;;20.30;;
46653;SDS011;38960;51.074;17.004;2023-07-13T10:03:04;21.65;;;20.15;;
46653;SDS011;38960;51.074;17.004;2023-07-13T10:05:38;20.83;;;19.42;;
46653;SDS011;38960;51.074;17.004;2023-07-13T10:08:05;20.70;;;19.27;;
46653;SDS011;38960;51.074;17.004;2023-07-13T10:10:32;21.83;;;20.13;;
46653;SDS011;38960;51.074;17.004;2023-07-13T10:12:58;22.00;;;20.50;;
46653;SDS011;38960;51.074;17.004;2023-07-13T10:15:24;21.05;;;19.42;;
46653;SDS011;38960;51.074;17.004;2023-07-13T10:17:54;21.88;;;20.40;;
46653;SDS011;38960;51.074;17.004;2023-07-13T10:20:21;22.40;;;20.35;;
46653;SDS011;38960;51.074;17.004;2023-07-13T10:25:26;21.15;;;19.67;;
46653;SDS011;38960;51.074;17.004;2023-07-13T10:28:01;21.30;;;19.90;;
46653;SDS011;38960;51.074;17.004;2023-07-13T10:30:35;21.55;;;20.02;;
46653;SDS011;38960;51.074;17.004;2023-07-13T10:33:08;21.88;;;20.38;;
46653;SDS011;38960;51.074;17.004;2023-07-13T10:35:36;20.98;;;19.55;;
46653;SDS011;38960;51.074;17.004;2023-07-13T10:38:04;20.77;;;19.38;;
46653;SDS011;38960;51.074;17.004;2023-07-13T10:40:39;20.52;;;19.13;;
46653;SDS011;38960;51.074;17.004;2023-07-13T10:43:15;21.05;;;19.67;;
46653;SDS011;38960;51.074;17.004;2023-07-13T10:45:43;20.95;;;19.65;;
46653;SDS011;38960;51.074;17.004;2023-07-13T10:48:12;19.88;;;18.63;;
46653;SDS011;38960;51.074;17.004;2023-07-13T10:50:39;20.75;;;19.13;;
46653;SDS011;38960;51.074;17.004;2023-07-13T10:53:19;21.30;;;19.90;;
46653;SDS011;38960;51.074;17.004;2023-07-13T11:03:38;20.17;;;18.30;;
46653;SDS011;38960;51.074;17.004;2023-07-13T11:11:46;21.42;;;19.77;;
46653;SDS011;38960;51.074;17.004;2023-07-13T11:14:07;20.13;;;18.73;;
46653;SDS011;38960;51.074;17.004;2023-07-13T11:16:54;19.50;;;18.20;;
46653;SDS011;38960;51.074;17.004;2023-07-13T11:24:58;19.90;;;18.58;;
46653;SDS011;38960;51.074;17.004;2023-07-13T11:27:41;19.70;;;18.27;;
46653;SDS011;38960;51.074;17.004;2023-07-13T11:32:42;20.27;;;18.88;;
46653;SDS011;38960;51.074;17.004;2023-07-13T11:35:20;20.17;;;18.60;;
46653;SDS011;38960;51.074;17.004;2023-07-13T11:37:51;20.92;;;19.27;;
46653;SDS011;38960;51.074;17.004;2023-07-13T11:40:17;21.67;;;20.15;;
46653;SDS011;38960;51.074;17.004;2023-07-13T11:42:43;19.95;;;18.65;;
46653;SDS011;38960;51.074;17.004;2023-07-13T11:45:18;19.30;;;18.13;;
46653;SDS011;38960;51.074;17.004;2023-07-13T11:50:19;20.42;;;18.92;;
46653;SDS011;38960;51.074;17.004;2023-07-13T11:52:46;21.60;;;19.73;;
46653;SDS011;38960;51.074;17.004;2023-07-13T11:55:15;20.20;;;18.77;;
46653;SDS011;38960;51.074;17.004;2023-07-13T11:57:47;21.33;;;19.77;;
46653;SDS011;38960;51.074;17.004;2023-07-13T12:00:17;20.85;;;19.13;;
46653;SDS011;38960;51.074;17.004;2023-07-13T12:02:45;20.02;;;18.63;;
46653;SDS011;38960;51.074;17.004;2023-07-13T12:05:13;20.58;;;19.02;;
46653;SDS011;38960;51.074;17.004;2023-07-13T12:07:40;20.23;;;18.73;;
46653;SDS011;38960;51.074;17.004;2023-07-13T12:12:37;19.65;;;18.35;;
46653;SDS011;38960;51.074;17.004;2023-07-13T12:15:06;19.85;;;18.55;;
46653;SDS011;38960;51.074;17.004;2023-07-13T12:17:34;20.27;;;18.88;;
46653;SDS011;38960;51.074;17.004;2023-07-13T12:19:59;20.60;;;19.20;;
46653;SDS011;38960;51.074;17.004;2023-07-13T12:22:25;19.80;;;18.40;;
46653;SDS011;38960;51.074;17.004;2023-07-13T12:24:51;21.42;;;19.67;;
46653;SDS011;38960;51.074;17.004;2023-07-13T12:27:24;21.85;;;20.05;;
46653;SDS011;38960;51.074;17.004;2023-07-13T12:29:56;19.92;;;18.63;;
46653;SDS011;38960;51.074;17.004;2023-07-13T12:32:24;20.48;;;19.13;;
46653;SDS011;38960;51.074;17.004;2023-07-13T12:34:54;20.60;;;19.10;;
46653;SDS011;38960;51.074;17.004;2023-07-13T12:37:21;21.30;;;19.70;;
46653;SDS011;38960;51.074;17.004;2023-07-13T12:39:48;20.98;;;19.48;;
46653;SDS011;38960;51.074;17.004;2023-07-13T12:42:27;19.42;;;18.23;;
46653;SDS011;38960;51.074;17.004;2023-07-13T12:44:57;21.67;;;19.80;;
46653;SDS011;38960;51.074;17.004;2023-07-13T12:47:25;19.67;;;18.38;;
46653;SDS011;38960;51.074;17.004;2023-07-13T12:49:53;20.40;;;19.00;;
46653;SDS011;38960;51.074;17.004;2023-07-13T12:52:24;20.38;;;19.05;;
46653;SDS011;38960;51.074;17.004;2023-07-13T12:55:17;20.20;;;18.92;;
46653;SDS011;38960;51.074;17.004;2023-07-13T12:57:50;19.98;;;18.70;;
46653;SDS011;38960;51.074;17.004;2023-07-13T13:02:51;19.83;;;18.40;;
46653;SDS011;38960;51.074;17.004;2023-07-13T13:05:18;19.58;;;18.27;;
46653;SDS011;38960;51.074;17.004;2023-07-13T13:07:45;20.70;;;19.30;;
46653;SDS011;38960;51.074;17.004;2023-07-13T13:10:12;19.85;;;18.55;;
46653;SDS011;38960;51.074;17.004;2023-07-13T13:12:39;19.92;;;18.70;;
46653;SDS011;38960;51.074;17.004;2023-07-13T13:15:07;21.42;;;19.25;;
46653;SDS011;38960;51.074;17.004;2023-07-13T13:17:34;20.75;;;19.00;;
46653;SDS011;38960;51.074;17.004;2023-07-13T13:19:59;19.42;;;18.23;;
46653;SDS011;38960;51.074;17.004;2023-07-13T13:22:25;22.15;;;20.27;;
46653;SDS011;38960;51.074;17.004;2023-07-13T13:24:51;19.55;;;18.35;;
46653;SDS011;38960;51.074;17.004;2023-07-13T13:27:17;21.02;;;19.38;;
46653;SDS011;38960;51.074;17.004;2023-07-13T13:29:45;19.23;;;17.80;;
46653;SDS011;38960;51.074;17.004;2023-07-13T13:32:11;20.98;;;19.05;;
46653;SDS011;38960;51.074;17.004;2023-07-13T13:34:38;19.85;;;18.55;;
46653;SDS011;38960;51.074;17.004;2023-07-13T13:37:04;19.45;;;18.25;;
46653;SDS011;38960;51.074;17.004;2023-07-13T13:39:46;20.63;;;19.30;;
46653;SDS011;38960;51.074;17.004;2023-07-13T13:42:12;18.75;;;17.65;;
46653;SDS011;38960;51.074;17.004;2023-07-13T13:44:38;19.50;;;18.10;;
46653;SDS011;38960;51.074;17.004;2023-07-13T13:47:03;19.48;;;18.00;;
46653;SDS011;38960;51.074;17.004;2023-07-13T13:49:29;20.33;;;18.83;;
46653;SDS011;38960;51.074;17.004;2023-07-13T13:51:56;19.85;;;18.55;;
46653;SDS011;38960;51.074;17.004;2023-07-13T13:54:22;19.50;;;18.27;;
46653;SDS011;38960;51.074;17.004;2023-07-13T13:56:49;19.77;;;18.23;;
46653;SDS011;38960;51.074;17.004;2023-07-13T13:59:17;20.33;;;18.75;;
46653;SDS011;38960;51.074;17.004;2023-07-13T14:01:43;19.75;;;18.48;;
46653;SDS011;38960;51.074;17.004;2023-07-13T14:04:14;19.67;;;18.27;;
46653;SDS011;38960;51.074;17.004;2023-07-13T14:06:42;20.80;;;18.98;;
46653;SDS011;38960;51.074;17.004;2023-07-13T14:09:12;19.35;;;18.00;;
46653;SDS011;38960;51.074;17.004;2023-07-13T14:11:40;19.05;;;17.85;;
46653;SDS011;38960;51.074;17.004;2023-07-13T14:14:12;20.35;;;18.80;;
46653;SDS011;38960;51.074;17.004;2023-07-13T14:16:48;19.27;;;17.98;;
46653;SDS011;38960;51.074;17.004;2023-07-13T14:19:18;19.60;;;18.27;;
46653;SDS011;38960;51.074;17.004;2023-07-13T14:21:44;19.08;;;17.50;;
46653;SDS011;38960;51.074;17.004;2023-07-13T14:24:09;19.33;;;17.75;;
46653;SDS011;38960;51.074;17.004;2023-07-13T14:26:38;18.63;;;17.35;;
46653;SDS011;38960;51.074;17.004;2023-07-13T14:29:11;18.60;;;17.40;;
46653;SDS011;38960;51.074;17.004;2023-07-13T14:31:39;18.25;;;16.92;;
46653;SDS011;38960;51.074;17.004;2023-07-13T14:34:05;18.77;;;17.58;;
46653;SDS011;38960;51.074;17.004;2023-07-13T14:36:32;18.92;;;17.52;;
46653;SDS011;38960;51.074;17.004;2023-07-13T14:39:00;19.67;;;18.10;;
46653;SDS011;38960;51.074;17.004;2023-07-13T14:41:31;18.67;;;17.50;;
46653;SDS011;38960;51.074;17.004;2023-07-13T14:43:56;18.73;;;17.42;;
46653;SDS011;38960;51.074;17.004;2023-07-13T14:46:28;18.70;;;17.50;;
46653;SDS011;38960;51.074;17.004;2023-07-13T14:49:07;19.83;;;18.42;;
46653;SDS011;38960;51.074;17.004;2023-07-13T14:51:57;19.42;;;17.92;;
46653;SDS011;38960;51.074;17.004;2023-07-13T14:54:26;18.80;;;17.60;;